createdAt,value
2023-03-25T00:08:43.745Z,99427.88
2023-03-25T00:18:49.900Z,99422.13
2023-03-25T00:28:53.442Z,99429.03
2023-03-25T00:38:58.401Z,99430.72
2023-03-25T00:49:02.670Z,99425.41
2023-03-25T00:59:07.703Z,99438.44
2023-03-25T01:09:15.432Z,99427.22
2023-03-25T01:19:20.414Z,99433.66
2023-03-25T01:29:24.451Z,99424.44
2023-03-25T01:39:29.473Z,99419.28
2023-03-25T01:49:39.021Z,99423.72
2023-03-25T01:59:44.040Z,99417.97
2023-03-25T02:09:47.612Z,99403.91
2023-03-25T02:20:43.181Z,99384.97
2023-03-25T02:31:39.142Z,99381.75
2023-03-25T02:41:51.003Z,99365.56
2023-03-25T02:52:00.657Z,99373.28
2023-03-25T03:02:09.444Z,99364.41
2023-03-25T03:12:37.657Z,99362.88
2023-03-25T03:22:52.531Z,99365.38
2023-03-25T03:33:03.721Z,99365.25
2023-03-25T03:43:16.224Z,99362.69
2023-03-25T03:53:24.779Z,99366.97
2023-03-25T04:03:34.988Z,99379.31
2023-03-25T04:13:43.563Z,99381.72
2023-03-25T04:35:05.812Z,99386.50
2023-03-25T04:45:30.637Z,99399.47
2023-03-25T04:55:34.592Z,99419.50
2023-03-25T05:05:40.135Z,99411.00
2023-03-25T05:15:43.700Z,99400.16
2023-03-25T05:25:51.542Z,99418.56
2023-03-25T05:35:55.432Z,99439.28
2023-03-25T05:46:00.393Z,99444.16
2023-03-25T05:56:04.177Z,99447.41
2023-03-25T06:06:13.918Z,99466.28
2023-03-25T06:16:20.202Z,99473.84
2023-03-25T06:26:25.446Z,99489.38
2023-03-25T06:36:29.421Z,99480.22
2023-03-25T06:46:34.486Z,99488.00
2023-03-25T06:56:38.276Z,99482.00
2023-03-25T07:06:43.208Z,99472.84
2023-03-25T07:16:47.041Z,99476.41
2023-03-25T07:26:52.036Z,99482.31
2023-03-25T07:36:56.006Z,99457.72
2023-03-25T07:47:00.921Z,99452.06
2023-03-25T07:57:04.669Z,99451.47
2023-03-25T08:07:09.590Z,99447.28
2023-03-25T08:17:13.390Z,99448.81
2023-03-25T08:27:18.468Z,99457.66
2023-03-25T08:37:22.392Z,99454.13
2023-03-25T08:47:27.582Z,99433.03
2023-03-25T08:57:31.299Z,99420.31
2023-03-25T09:07:36.255Z,99406.44
2023-03-25T09:17:40.920Z,99402.41
2023-03-25T09:27:45.955Z,99393.94
2023-03-25T09:37:52.304Z,99380.56
2023-03-25T09:48:03.421Z,99386.06
2023-03-25T09:58:28.281Z,99593.09
2023-03-25T10:08:48.156Z,99535.75
2023-03-25T10:19:05.199Z,99519.09
2023-03-25T10:29:15.477Z,99511.66
2023-03-25T10:39:22.671Z,99510.88
2023-03-25T10:49:31.622Z,99493.19
2023-03-25T10:59:41.233Z,99508.31
2023-03-25T11:09:51.716Z,99489.59
2023-03-25T11:20:00.158Z,99488.56
2023-03-25T11:30:10.398Z,99470.91
2023-03-25T11:40:18.625Z,99460.03
2023-03-25T11:50:26.137Z,99454.97
2023-03-25T12:00:38.470Z,99455.00
2023-03-25T12:10:56.383Z,99446.34
2023-03-25T12:21:07.541Z,99414.84
2023-03-25T12:31:27.342Z,99393.34
2023-03-25T12:41:38.163Z,99386.97
2023-03-25T12:51:55.074Z,99348.09
2023-03-25T13:02:16.116Z,99346.13
2023-03-25T13:12:32.626Z,99352.75
2023-03-25T13:22:44.002Z,99354.44
2023-03-25T13:32:54.851Z,99374.06
2023-03-25T13:43:04.842Z,99374.75
2023-03-25T13:53:18.249Z,99364.66
2023-03-25T14:03:51.474Z,99385.91
2023-03-25T14:14:01.298Z,99377.38
2023-03-25T14:24:12.172Z,99365.31
2023-03-25T14:34:27.737Z,99353.09
2023-03-25T14:44:33.202Z,99355.06
2023-03-25T14:54:38.401Z,99354.28
2023-03-25T15:04:42.713Z,99340.38
2023-03-25T15:14:51.496Z,99340.63
2023-03-25T15:24:59.320Z,99334.66
2023-03-25T15:35:38.479Z,99338.94
2023-03-25T15:46:24.396Z,99332.09
2023-03-25T15:56:35.020Z,99322.78
2023-03-25T16:06:43.838Z,99340.13
2023-03-25T16:16:53.101Z,99336.84
2023-03-25T16:26:56.857Z,99339.56
2023-03-25T16:37:02.469Z,99344.28
2023-03-25T16:47:06.930Z,99358.06
2023-03-25T16:57:18.171Z,99371.06
2023-03-25T17:07:27.580Z,99373.25
2023-03-25T17:17:41.474Z,99388.19
2023-03-25T17:27:45.466Z,99410.00
2023-03-25T17:37:52.213Z,99421.78
2023-03-25T17:47:56.649Z,99426.66
2023-03-25T17:58:02.139Z,99448.09
2023-03-25T18:08:06.243Z,99460.97
2023-03-25T18:18:17.582Z,99467.13
2023-03-25T18:28:21.744Z,99482.00
2023-03-25T18:38:28.782Z,99505.47
2023-03-25T18:48:32.553Z,99542.31
2023-03-25T18:58:37.786Z,99570.22
2023-03-25T19:08:43.343Z,99577.16
2023-03-25T19:18:48.497Z,99598.00
2023-03-25T19:28:52.211Z,99605.50
2023-03-25T19:39:05.365Z,99613.91
2023-03-25T19:49:09.095Z,99628.34
2023-03-25T19:59:16.894Z,99625.25
2023-03-25T20:09:20.574Z,99617.09
2023-03-25T20:19:26.816Z,99613.63
2023-03-25T20:29:30.458Z,99599.81
2023-03-25T20:39:35.487Z,99602.16
2023-03-25T20:49:40.566Z,99590.34
2023-03-25T20:59:46.124Z,99597.56
2023-03-25T21:09:50.083Z,99599.84
2023-03-25T21:19:55.203Z,99619.66
2023-03-25T21:29:58.799Z,99634.19
2023-03-25T21:40:03.979Z,99644.78
2023-03-25T21:50:10.952Z,99647.88
2023-03-25T22:00:19.695Z,99670.09
2023-03-25T22:10:23.556Z,99654.66
2023-03-25T22:20:28.928Z,99661.69
2023-03-25T22:30:32.694Z,99667.97
2023-03-25T22:40:37.761Z,99659.84
2023-03-25T22:50:41.465Z,99669.09
2023-03-25T23:00:46.590Z,99667.34
2023-03-25T23:10:50.420Z,99678.44
2023-03-25T23:20:55.834Z,99678.78
2023-03-25T23:30:59.549Z,99676.34
2023-03-25T23:41:08.125Z,99664.22
2023-03-25T23:51:17.348Z,99662.00
